Nome, AK

10:30 AM AKDT on August 20, 2014 (GMT -0800)
White Mountain | Change Station
CLOSE
Current Station
Airport
Location: White Mountain,
Elevation: 266 ft
Nearby Weather Stations

Elev 266 ft 64.69 °N, 163.41 °W | Updated 32 minutes ago

Overcast
Overcast
61 °F
Feels Like 61 °F
N
0
Wind Variable Wind from North

Today
High -- | Low -- °F
--% Chance of Precip.
Yesterday
High -- | Low -- °F
Precip. -- in
7:06 AM 11:00 PM
Waning Crescent, 20% visible
Pressure 30.17 in
Visibility 9.0 miles
Clouds Overcast 6000 ft
Dew Point 58 °F
Humidity 90%
Rainfall 0.00 in
Snow Depth Not available.
UV 0 out of 12
Pollen Not available.
Air Quality Not available.
Flu Activity Not available.
METAR PAWM 201758Z AUTO 00000KT 9SM OVC060 16/14 A3014 RMK AO2 SLP215 T01610144 10167 20144 50012

More Conditions Fewer Conditions

Pressure 30.17 in
Visibility 9.0 miles
Clouds Overcast 6000 ft
Dew Point 58 °F
Humidity 90%
Rainfall 0.00 in
Snow Depth Not available.
UV 0 out of 12
Pollen Not available.
Air Quality Not available.
Flu Activity Not available.
METAR PAWM 201758Z AUTO 00000KT 9SM OVC060 16/14 A3014 RMK AO2 SLP215 T01610144 10167 20144 50012

More Conditions Fewer Conditions

10-Day Weather Forecast

Almanac

Astronomy

Aug. 20, 2014 Rise Set
Actual Time 7:06 AM AKDT 11:00 PM AKDT
Civil Twilight 6:04 AM AKDT 12:01 AM AKDT
Nautical Twilight 4:14 AM AKDT 1:46 AM AKDT
Astronomical Twilight Sun does not rise Sun does not rise
Moon 2:10 AM AKDT 8:37 PM AKDT
Length of Visible Light 17h 56m
Length of Day
15h 53m
Tomorrow will be 6m 42s shorter.
Waning Crescent, 20% of the Moon is Illuminated
Today
Waning Crescent
Aug 25
New
Sep 2
First Quarter
Sep 8
Full
Sep 15
Last Quarter

Today's Extremes

State Highs State Lows

Community

WunderPhotos

Upload Photos

1,745,707 photos uploaded!

WunderBlogs® & News

By Dr. Jeff Masters
Director of Meteorology, Weather Underground
By Kari Strenfel
Meteorologist, Weather Underground
By Christopher C. Burt
Weather Historian, Weather Underground
August 20, 2014
August 20, 2014
August 20, 2014

Nearby

Snow Depth

Station Depth Elevation
Rocky Point 3 in 500 ft
Coldfoot 0 in 1040 ft
Susitna Valley High 109 in 375 ft
Atigun Pass 0 in 4800 ft
Point Mackenzie 1 in 200 ft

Earthquake Activity

City Distance Mag. Time & Date
No recent earthquake activity has been reported nearby.
Minimum magnitude displayed is 2.5.

Coastal Water Temperatures

Place Temperature
No Stations Reporting

Nearby Weather Stations